Hlavní strana
METAR-TAF:

METAR-TAF

Letiště :

Verona, Itálie

zeměpisná šířka: 45-23N, zeměpisná délka: 010-52E, výška: 67 m

Aktuální stav počasí

Zpráva byla vytvořena před 12 minutami, v 13:50 UTC
Západojihozápadní vítr 7 kt
Teplota 10°C
Vlhkost vzduchu 62%
Tlak 1010 hPa
Viditelnost 10 km a více
Polojasno ve výšce 7000 ft

METAR: LIPX 241350Z 25007KT 9999 SCT070 10/03 Q1010

Čas: 15:02 (14:02 UTC)

Předpověď počasí

Zpráva byla vytvořena před 3 hodinami a 2 minutami, v 11:00 UTC
Předpověď platná od 24 v 12 UTC do 24 v 21 UTC
Východní vítr 8 kt
Viditelnost: 7000 m
Polojasno ve výšce 2000 ft
Polojasno ve výšce 6000 ft

TAF: LIPX 241100Z 2412/2421 09008KT 7000 SCT020 SCT060

Stav a předpovědi počasí z více než 4 000 letišť (zprávy METAR a TAF).

Červené a žluté tečky na mapě představují dostupné meteorologické stanice.

Když kurzor umístíte na tečku, zobrazí se název stanice.

Pak kliknutím zobrazíte stav a předpověď počasí.

Chcete-li změnit mapu, kliknutím na zelené tlačítko se znaménkem +mapu přiblížíte, kliknutím na zelené tlačítko se znaménkem – mapu oddálíte a kliknutím na zelené šipky přejdete na sousední mapy.


METAR-TAF: